Buffalo, WY (82834)

11:48 PM MDT on April 26, 2017 (GMT -0600)
Buffalo | | Change Station
Active Advisory: Winter Storm Watch Active Notice: Public Information Statement

Elev 4708 ft 44.34 °N, 106.70 °W | Updated 2 seconds ago

Clear
Clear
36.0 °F
Feels Like 36 °F
N
0.0
Wind Variable Wind from SW
Gusts 0.0 mph

Today
High -- | Low -- °F
--% Chance of Precip.
Yesterday
High -- | Low -- °F
Precip. -- in
Pressure 29.67 in
Visibility 10.0 miles
Clouds Clear
Windchill 36 °F
Dew Point 32 °F
Humidity 86%
Rainfall 0.60 in
Snow Depth Not available.
6:04 AM 8:05 PM
New Moon, 1% visible
METAR KBYG 270453Z AUTO 16006KT 10SM CLR 02/M03 A2964 RMK AO2 SLP045 T00221028 $
Pressure 29.67 in
Visibility 10.0 miles
Clouds Clear
Windchill 36 °F
Dew Point 32 °F
Humidity 86%
Rainfall 0.60 in
Snow Depth Not available.
6:04 AM 8:05 PM
New Moon, 1% visible
METAR KBYG 270453Z AUTO 16006KT 10SM CLR 02/M03 A2964 RMK AO2 SLP045 T00221028 $

Get Your Daily Forecast Email!

Thanks for signing up!

Be on the lookout for a verification email in your inbox.

You'll start receiving severe weather alerts in your inbox..

×

10-Day Weather Forecast

Almanac

Astronomy

Apr. 26, 2017 Rise Set
Actual Time
Civil Twilight
Nautical Twilight
Astronomical Twilight
Moon
Length of Visible Light
Length of Day
Tomorrow will be .
, % of the Moon is Illuminated

Today's Extremes

State Highs State Lows

Community

WunderPhotos

WunderBlog® & News

Nearby

Air Quality

  Air Quality AQ Index Pollutant
Not available.

Snow Depth

Station Depth Elevation

Earthquake Activity

City Distance Mag. Time & Date
Minimum magnitude displayed is 2.5.

Coastal Water Temperatures

Place Temperature

Stations

Nearby Weather Stations

Station Location Temp. Windchill Dew Point Humidity Wind Precip. Elev Updated Type
                   

Watches & Warnings

Winter Storm Watch
Issued: 2:57 PM MDT Apr. 26, 2017 – National Weather Service

... Winter Storm Watch in effect from Thursday evening through
late Friday night...

The National Weather Service in Riverton has issued a Winter
Storm Watch, which is in effect from Thursday evening through
late Friday night.

* Timing... snow will increase over Johnson County Thursday
afternoon. As the storm develops heavy snow will be possible
through Friday night.

* Snow accumulation... 6 to 12 inches.

* Main impact... slushy to snow packed roads will make travel
difficult.

* Other impacts... heavy snow will reduce visibility below a
quarter mile at times.

Precautionary/preparedness actions...

A Winter Storm Watch means there is a potential for significant
snow and/or blowing snow that may impact travel. Continue to
monitor the latest forecasts.